Estació municipal de St. Julià de Vilatorta (Osona, E.N.Guilleries-Savassona)

Consulta les dades en temps real de l'estació municipal de St. Julià de Vilatorta





Hora UTC 01:40
Temperatura 15.6 ºC
Subsòl 10 cm 11.3 ºC
Humitat 70.5 %
Pressió 1017.9 hPa
Pluja 0.0 mm
Velocitat vent 3.1 km/h
Direcció vent SE
Radiació solar 0.8 W/m²
Fuel 6.1 %

Webcam

Dades diàries 2026-08-31



Hora UTC (hivern +1h; estiu +2h)
Temperatura (ºC) Humitat (%) Pressió (hPa) Velocitat vent (km/h) Precipitació (mm) Fuel (%) Radiació solar (W/m²)
Hora UTC Aire Subsòl 10 cm Humitat Pressió Vel. Dir. Vel. Max Dir. Intent. màx 5 min. Fuel Rad. Sol.
00:05 16.3 12.7 66.0 1017.9 2.6 E 2.6 E 0.0 5.6 0.5
00:10 16.3 12.5 66.4 1017.9 2.8 ESE 5.4 ESE 0.0 5.6 0.7
00:15 16.2 12.4 67.4 1017.8 1.6 SSE 3.4 SE 0.0 5.7 0.5
00:20 16.0 12.4 68.4 1017.8 2.8 SE 4.6 SE 0.0 5.7 0.5
00:25 15.8 12.4 68.7 1017.8 1.8 E 3.2 ESE 0.0 5.7 0.2
00:30 15.9 12.3 68.2 1017.9 1.1 SSW 3.1 ESE 0.0 5.7 0.9
00:35 15.9 12.1 68.4 1017.8 2.1 ESE 3.1 ESE 0.0 5.7 0.5
00:40 15.9 12.1 68.8 1017.8 1.6 SSE 3.1 ESE 0.0 5.8 0.4
00:45 15.7 12.0 69.8 1017.8 1.8 SE 3.0 ESE 0.0 5.8 0.9
00:50 15.5 11.9 70.4 1017.8 1.2 SSE 2.1 SE 0.0 5.8 0.7
00:55 15.4 11.8 71.4 1017.8 1.1 SE 2.3 SSE 0.0 5.8 0.7
01:00 15.2 11.7 72.0 1017.9 1.2 ESE 2.0 SE 0.0 5.9 0.8
01:05 15.1 11.5 72.6 1017.9 1.8 SE 3.1 SE 0.0 5.7 1.0
01:10 15.1 11.4 72.7 1017.9 3.0 SE 4.1 SE 0.0 5.9 0.8
01:15 15.0 11.4 73.2 1017.9 1.9 ESE 3.0 ESE 0.0 6.0 0.8
01:20 15.1 11.4 72.7 1017.9 2.9 SE 3.8 SSE 0.0 5.9 1.0
01:25 15.2 11.4 72.2 1017.9 3.4 SE 5.4 SE 0.0 6.0 0.6
01:30 15.5 11.3 70.7 1017.9 2.5 SE 5.1 SE 0.0 6.0 0.6
01:35 15.5 11.3 70.7 1017.9 1.9 ESE 2.7 ESE 0.0 6.0 0.5
01:40 15.6 11.3 70.5 1017.9 3.1 SE 5.9 SSE 0.0 6.1 0.8
Màxima 16.3 12.7 73.2 1017.9 3.4 SE 5.9 SSE 0.0 6.1 1.0
Mínima 15.0 11.3 66.0 1017.8 5.6
Total 0.0